createdAt,value
2018-07-17T00:00:33.332Z,20.80
2018-07-17T00:03:04.027Z,20.70
2018-07-17T00:05:34.782Z,20.60
2018-07-17T00:08:05.502Z,20.50
2018-07-17T00:10:36.047Z,20.40
2018-07-17T00:13:06.422Z,20.40
2018-07-17T00:15:36.973Z,20.40
2018-07-17T00:18:07.327Z,20.30
2018-07-17T00:20:38.689Z,20.30
2018-07-17T00:23:09.152Z,20.20
2018-07-17T00:25:39.658Z,20.20
2018-07-17T00:28:10.761Z,20.10
2018-07-17T00:30:41.374Z,20.10
2018-07-17T00:33:11.809Z,20.10
2018-07-17T00:35:42.229Z,20.00
2018-07-17T00:38:12.559Z,20.00
2018-07-17T00:40:42.965Z,19.90
2018-07-17T00:43:13.361Z,20.00
2018-07-17T00:50:44.080Z,19.90
2018-07-17T00:53:14.477Z,19.80
2018-07-17T00:55:44.870Z,19.90
2018-07-17T00:58:15.141Z,19.90
2018-07-17T01:00:46.043Z,19.80
2018-07-17T01:03:21.464Z,19.80
2018-07-17T01:05:57.068Z,19.70
2018-07-17T01:08:32.704Z,19.70
2018-07-17T01:11:08.509Z,19.70
2018-07-17T01:13:43.013Z,19.60
2018-07-17T01:16:13.460Z,19.60
2018-07-17T01:18:43.862Z,19.60
2018-07-17T01:21:14.185Z,19.60
2018-07-17T01:23:44.518Z,19.60
2018-07-17T01:26:14.842Z,19.60
2018-07-17T01:28:45.260Z,19.60
2018-07-17T01:31:15.580Z,19.50
2018-07-17T01:33:45.961Z,19.60
2018-07-17T01:36:16.288Z,19.60
2018-07-17T01:38:46.631Z,19.50
2018-07-17T01:41:16.999Z,19.50
2018-07-17T01:43:47.389Z,19.50
2018-07-17T01:46:17.699Z,19.50
2018-07-17T01:48:48.097Z,19.40
2018-07-17T01:51:18.497Z,19.30
2018-07-17T01:53:48.876Z,19.30
2018-07-17T01:56:19.257Z,19.00
2018-07-17T01:58:49.640Z,19.00
2018-07-17T02:01:21.777Z,18.90
2018-07-17T02:03:52.317Z,18.90
2018-07-17T02:06:22.648Z,18.90
2018-07-17T02:08:53.021Z,18.90
2018-07-17T02:11:23.403Z,18.90
2018-07-17T02:13:53.832Z,18.90
2018-07-17T02:16:24.183Z,18.90
2018-07-17T02:18:54.577Z,18.90
2018-07-17T02:21:24.889Z,18.90
2018-07-17T02:23:55.249Z,18.90
2018-07-17T02:26:25.657Z,18.90
2018-07-17T02:28:56.251Z,18.90
2018-07-17T02:31:32.686Z,18.90
2018-07-17T02:34:03.115Z,18.90
2018-07-17T02:36:33.622Z,18.90
2018-07-17T02:42:50.413Z,18.90
2018-07-17T02:45:58.440Z,18.90
2018-07-17T02:49:04.561Z,18.90
2018-07-17T02:54:47.075Z,18.70
2018-07-17T03:00:59.682Z,18.70
2018-07-17T03:07:30.892Z,18.60
2018-07-17T03:10:33.894Z,18.60
2018-07-17T03:17:01.198Z,18.60
2018-07-17T03:20:03.774Z,18.60
2018-07-17T03:59:08.762Z,18.60
2018-07-17T05:32:28.331Z,24.20
2018-07-17T05:35:01.822Z,24.60
2018-07-17T05:37:34.526Z,24.70
2018-07-17T05:40:10.269Z,24.80
2018-07-17T05:42:43.418Z,24.90
2018-07-17T05:45:13.873Z,25.10
2018-07-17T05:47:48.559Z,25.30
2018-07-17T05:50:20.480Z,25.40
2018-07-17T05:52:53.943Z,25.40
2018-07-17T05:55:28.991Z,25.60
2018-07-17T05:58:05.196Z,25.60
2018-07-17T06:00:41.521Z,25.60
2018-07-17T06:03:20.813Z,25.60
2018-07-17T06:09:17.960Z,25.60
2018-07-17T06:11:59.296Z,25.60
2018-07-17T06:14:35.300Z,25.70
2018-07-17T06:17:12.591Z,25.90
2018-07-17T06:20:01.101Z,26.00
2018-07-17T06:25:18.561Z,26.10
2018-07-17T06:27:57.887Z,26.10
2018-07-17T06:30:35.918Z,26.20
2018-07-17T06:35:54.239Z,26.30
2018-07-17T06:38:28.544Z,26.30
2018-07-17T06:41:00.629Z,26.40
2018-07-17T06:43:33.237Z,26.60
2018-07-17T06:46:07.719Z,26.70
2018-07-17T06:48:40.136Z,26.80
2018-07-17T06:51:11.756Z,27.00
2018-07-17T06:53:44.263Z,27.10
2018-07-17T06:56:15.755Z,27.20
2018-07-17T06:58:48.809Z,27.40
2018-07-17T07:01:23.045Z,27.50
2018-07-17T07:03:57.798Z,27.60
2018-07-17T07:09:11.269Z,27.60
2018-07-17T07:11:47.185Z,27.80
2018-07-17T07:14:22.446Z,27.90
2018-07-17T07:17:01.603Z,28.10
2018-07-17T07:19:38.328Z,28.30
2018-07-17T07:22:15.441Z,28.40
2018-07-17T07:24:57.433Z,28.40
2018-07-17T07:27:34.292Z,28.40
2018-07-17T07:30:09.532Z,28.40
2018-07-17T07:32:42.326Z,28.40
2018-07-17T07:35:24.341Z,28.60
2018-07-17T07:38:02.868Z,28.70
2018-07-17T07:40:34.992Z,28.70
2018-07-17T07:43:10.739Z,28.90
2018-07-17T07:45:46.988Z,28.90
2018-07-17T07:48:37.945Z,28.80
2018-07-17T07:51:11.463Z,28.70
2018-07-17T07:53:51.537Z,28.80
2018-07-17T07:59:05.740Z,29.00
2018-07-17T08:04:12.442Z,28.30
2018-07-17T08:06:46.209Z,28.30
2018-07-17T08:09:23.403Z,28.40
2018-07-17T08:12:03.965Z,28.40
2018-07-17T08:14:37.870Z,28.40
2018-07-17T08:17:10.660Z,28.40
2018-07-17T08:19:46.221Z,28.40
2018-07-17T08:22:19.955Z,28.50
2018-07-17T08:24:56.102Z,28.70
2018-07-17T08:27:37.752Z,28.70
2018-07-17T08:30:15.725Z,28.90
2018-07-17T08:32:55.778Z,28.90
2018-07-17T08:35:34.655Z,28.90
2018-07-17T08:38:09.247Z,28.90
2018-07-17T08:40:43.834Z,28.70
2018-07-17T08:43:29.808Z,28.80
2018-07-17T08:46:09.386Z,28.90
2018-07-17T08:48:45.867Z,28.80
2018-07-17T08:51:21.604Z,28.70
2018-07-17T08:53:53.863Z,28.60
2018-07-17T08:56:27.241Z,28.60
2018-07-17T08:59:06.039Z,28.70
2018-07-17T09:01:41.380Z,28.50
2018-07-17T09:04:27.554Z,28.40
2018-07-17T09:07:03.617Z,28.40
2018-07-17T09:09:38.097Z,28.40
2018-07-17T09:12:16.629Z,28.40
2018-07-17T09:14:53.206Z,28.50
2018-07-17T09:17:29.967Z,28.40
2018-07-17T09:20:09.971Z,28.40
2018-07-17T09:22:46.048Z,28.40
2018-07-17T09:25:19.947Z,28.50
2018-07-17T09:27:52.022Z,28.60
2018-07-17T09:30:24.201Z,28.70
2018-07-17T09:33:00.988Z,28.90
2018-07-17T09:35:36.435Z,28.90
2018-07-17T09:38:11.696Z,28.90
2018-07-17T09:40:46.580Z,28.90
2018-07-17T09:43:43.706Z,29.00
2018-07-17T09:46:30.561Z,29.10
2018-07-17T09:49:17.290Z,29.10
2018-07-17T09:51:53.763Z,29.10
2018-07-17T09:54:40.121Z,28.90
2018-07-17T09:57:24.134Z,28.90
2018-07-17T10:02:43.471Z,29.30
2018-07-17T10:07:54.343Z,29.70
2018-07-17T10:10:35.002Z,29.70
2018-07-17T10:16:03.193Z,29.90
2018-07-17T10:18:44.075Z,29.80
2018-07-17T10:21:18.461Z,29.80
2018-07-17T10:24:00.655Z,29.90
2018-07-17T10:26:40.997Z,30.00
2018-07-17T10:29:27.251Z,29.90
2018-07-17T10:32:05.634Z,30.00
2018-07-17T10:34:37.955Z,29.90
2018-07-17T10:37:10.592Z,29.80
2018-07-17T10:39:47.366Z,29.80
2018-07-17T10:49:06.786Z,30.20
2018-07-17T11:00:56.488Z,30.10
2018-07-17T11:03:49.463Z,29.90
2018-07-17T11:07:02.636Z,29.80
2018-07-17T11:09:51.540Z,29.90
2018-07-17T11:38:13.137Z,29.90
2018-07-17T12:29:32.674Z,30.70
2018-07-17T12:32:31.424Z,30.70
2018-07-17T12:35:16.103Z,30.90
2018-07-17T12:37:52.855Z,30.90
2018-07-17T12:40:30.463Z,31.00
2018-07-17T12:46:08.068Z,31.10
2018-07-17T12:48:49.253Z,31.40
2018-07-17T12:51:25.512Z,31.50
2018-07-17T12:53:56.157Z,31.50
2018-07-17T12:56:27.484Z,31.30
2018-07-17T12:58:59.967Z,31.20
2018-07-17T13:01:35.821Z,31.20
2018-07-17T13:04:09.155Z,31.20
2018-07-17T13:07:16.293Z,31.20
2018-07-17T13:20:58.351Z,31.00
2018-07-17T14:06:58.172Z,27.40
2018-07-17T14:14:17.802Z,27.30
2018-07-17T14:34:58.808Z,27.20
2018-07-17T14:53:36.501Z,27.00
2018-07-17T15:50:07.368Z,26.90
2018-07-17T15:52:37.753Z,28.20
2018-07-17T15:55:08.399Z,28.40
2018-07-17T15:57:38.812Z,28.50
2018-07-17T16:00:16.396Z,28.70
2018-07-17T16:02:52.033Z,28.80
2018-07-17T16:07:12.111Z,28.90
2018-07-17T16:09:42.532Z,28.90
2018-07-17T16:15:25.284Z,29.00
2018-07-17T16:17:55.666Z,29.00
2018-07-17T16:20:26.055Z,29.10
2018-07-17T16:22:56.480Z,29.10
2018-07-17T16:25:26.987Z,29.20
2018-07-17T16:31:17.603Z,29.30
2018-07-17T16:36:58.990Z,29.20
2018-07-17T16:39:30.288Z,29.10
2018-07-17T16:42:00.694Z,29.10
2018-07-17T16:44:31.164Z,29.10
2018-07-17T16:47:01.557Z,29.10
2018-07-17T16:49:32.717Z,29.10
2018-07-17T16:52:03.975Z,29.10
2018-07-17T16:54:34.463Z,29.10
2018-07-17T16:57:05.052Z,29.10
2018-07-17T16:59:35.377Z,29.10
2018-07-17T17:02:05.966Z,29.20
2018-07-17T17:04:36.612Z,29.10
2018-07-17T17:07:06.940Z,29.10
2018-07-17T17:09:37.356Z,29.10
2018-07-17T17:12:07.961Z,29.00
2018-07-17T17:14:38.348Z,29.00
2018-07-17T17:17:08.773Z,29.00
2018-07-17T17:19:39.171Z,29.00
2018-07-17T17:22:09.612Z,29.10
2018-07-17T17:24:40.018Z,29.10
2018-07-17T17:27:10.496Z,29.00
2018-07-17T17:29:40.809Z,29.00
2018-07-17T17:32:12.804Z,29.00
2018-07-17T17:34:43.569Z,29.00
2018-07-17T17:37:13.988Z,29.00
2018-07-17T17:39:44.449Z,28.90
2018-07-17T17:42:14.796Z,28.90
2018-07-17T17:44:45.179Z,28.90
2018-07-17T17:47:16.757Z,28.80
2018-07-17T17:49:47.717Z,28.80
2018-07-17T17:52:18.227Z,28.70
2018-07-17T17:54:48.662Z,28.70
2018-07-17T17:57:19.186Z,28.70
2018-07-17T17:59:49.685Z,28.70
2018-07-17T18:02:20.026Z,28.70
2018-07-17T18:04:50.413Z,28.70
2018-07-17T18:07:20.878Z,28.60
2018-07-17T18:09:54.613Z,28.50
2018-07-17T18:12:27.508Z,28.40
2018-07-17T18:15:01.212Z,28.30
2018-07-17T18:17:31.596Z,28.30
2018-07-17T18:20:02.073Z,28.20
2018-07-17T18:22:32.588Z,28.20
2018-07-17T18:25:03.050Z,28.20
2018-07-17T18:27:33.501Z,28.10
2018-07-17T18:30:03.972Z,28.00
2018-07-17T18:32:34.332Z,27.90
2018-07-17T18:35:05.250Z,27.90
2018-07-17T18:37:35.852Z,27.90
2018-07-17T18:40:06.429Z,27.80
2018-07-17T18:42:36.815Z,27.80
2018-07-17T18:45:08.512Z,27.80
2018-07-17T18:47:38.885Z,27.60
2018-07-17T18:50:13.332Z,27.40
2018-07-17T18:52:43.642Z,27.30
2018-07-17T18:55:14.104Z,27.20
2018-07-17T18:57:44.501Z,27.10
2018-07-17T19:00:14.961Z,27.00
2018-07-17T19:02:45.602Z,26.90
2018-07-17T19:05:15.954Z,26.70
2018-07-17T19:07:46.376Z,26.50
2018-07-17T19:10:17.139Z,26.40
2018-07-17T19:12:47.623Z,26.30
2018-07-17T19:15:18.729Z,26.30
2018-07-17T19:17:49.191Z,26.00
2018-07-17T19:20:19.538Z,26.00
2018-07-17T19:22:50.024Z,25.90
2018-07-17T19:25:20.427Z,25.80
2018-07-17T19:27:50.995Z,25.70
2018-07-17T19:30:21.630Z,25.50
2018-07-17T19:32:52.379Z,25.30
2018-07-17T19:35:22.723Z,25.30
2018-07-17T19:37:53.144Z,25.20
2018-07-17T19:40:24.004Z,25.20
2018-07-17T19:42:54.808Z,25.20
2018-07-17T19:45:25.223Z,25.10
2018-07-17T19:47:55.847Z,25.10
2018-07-17T19:50:26.312Z,25.00
2018-07-17T19:52:56.730Z,25.00
2018-07-17T19:55:27.371Z,25.00
2018-07-17T19:57:57.903Z,25.00
2018-07-17T20:00:28.587Z,24.90
2018-07-17T20:02:59.172Z,24.90
2018-07-17T20:05:29.672Z,24.80
2018-07-17T20:08:00.081Z,24.90
2018-07-17T20:10:30.792Z,24.90
2018-07-17T20:13:04.289Z,24.90
2018-07-17T20:15:34.898Z,24.90
2018-07-17T20:18:05.350Z,24.90
2018-07-17T20:20:35.912Z,24.90
2018-07-17T20:23:06.576Z,24.80
2018-07-17T20:25:37.045Z,24.80
2018-07-17T20:28:12.273Z,24.90
2018-07-17T20:30:44.644Z,24.80
2018-07-17T20:33:15.033Z,24.70
2018-07-17T20:35:45.579Z,24.60
2018-07-17T20:38:15.975Z,24.50
2018-07-17T20:40:46.558Z,24.50
2018-07-17T20:43:16.906Z,24.40
2018-07-17T20:45:47.487Z,24.30
2018-07-17T20:48:18.015Z,24.20
2018-07-17T20:50:48.345Z,24.20
2018-07-17T20:53:18.974Z,24.20
2018-07-17T20:55:51.361Z,24.20
2018-07-17T20:58:21.843Z,24.20
2018-07-17T21:00:52.319Z,24.10
2018-07-17T21:03:22.968Z,24.10
2018-07-17T21:05:53.653Z,24.00
2018-07-17T21:08:24.292Z,24.00
2018-07-17T21:11:04.913Z,24.00
2018-07-17T21:13:40.918Z,23.90
2018-07-17T21:16:14.969Z,23.90
2018-07-17T21:18:52.403Z,23.90
2018-07-17T21:21:31.991Z,23.90
2018-07-17T21:24:02.562Z,23.80
2018-07-17T21:26:33.016Z,23.90
2018-07-17T21:29:14.624Z,23.90
2018-07-17T21:31:49.974Z,23.80
2018-07-17T21:34:21.466Z,23.70
2018-07-17T21:36:51.924Z,23.70
2018-07-17T21:39:25.313Z,23.70
2018-07-17T21:41:57.046Z,23.70
2018-07-17T21:44:40.671Z,23.70
2018-07-17T21:47:11.142Z,23.70
2018-07-17T21:49:46.033Z,23.60
2018-07-17T21:52:18.475Z,23.60
2018-07-17T21:54:48.997Z,23.50
2018-07-17T21:57:23.387Z,23.50
2018-07-17T21:59:57.699Z,23.50
2018-07-17T22:02:33.538Z,23.50
2018-07-17T22:05:05.214Z,23.50
2018-07-17T22:07:35.874Z,23.60
2018-07-17T22:10:06.649Z,23.60
2018-07-17T22:12:37.123Z,23.60
2018-07-17T22:15:07.667Z,23.60
2018-07-17T22:17:38.220Z,23.60
2018-07-17T22:20:08.865Z,23.50
2018-07-17T22:22:39.427Z,23.50
2018-07-17T22:25:09.871Z,23.60
2018-07-17T22:27:40.337Z,23.60
2018-07-17T22:30:10.851Z,23.60
2018-07-17T22:32:41.585Z,23.60
2018-07-17T22:35:12.190Z,23.60
2018-07-17T22:37:42.710Z,23.70
2018-07-17T22:40:13.187Z,23.70
2018-07-17T22:42:43.746Z,23.70
2018-07-17T22:45:14.079Z,23.60
2018-07-17T22:47:44.632Z,23.60
2018-07-17T22:50:17.309Z,23.60
2018-07-17T22:52:52.050Z,23.60
2018-07-17T22:55:22.510Z,23.50
2018-07-17T22:57:52.868Z,23.50
2018-07-17T23:00:25.206Z,23.40
2018-07-17T23:02:55.633Z,23.40
2018-07-17T23:05:26.082Z,23.30
2018-07-17T23:08:00.150Z,23.20
2018-07-17T23:10:31.644Z,23.10
2018-07-17T23:13:02.272Z,23.10
2018-07-17T23:15:32.847Z,23.10
2018-07-17T23:18:10.194Z,23.00
2018-07-17T23:20:48.432Z,23.10
2018-07-17T23:23:24.743Z,23.00
2018-07-17T23:25:56.968Z,23.00
2018-07-17T23:28:29.654Z,23.00
2018-07-17T23:31:00.292Z,22.90
2018-07-17T23:33:30.771Z,22.80
2018-07-17T23:36:01.186Z,22.80
2018-07-17T23:38:32.521Z,22.70
2018-07-17T23:41:03.199Z,22.60
2018-07-17T23:43:33.536Z,22.40
2018-07-17T23:46:03.989Z,22.30
2018-07-17T23:48:34.422Z,22.30
2018-07-17T23:51:04.789Z,22.20
2018-07-17T23:53:35.203Z,22.20
2018-07-17T23:56:06.054Z,22.10
2018-07-17T23:58:36.484Z,22.10
